sensor_id;sensor_type;location;lat;lon;timestamp;P1;durP1;ratioP1;P2;durP2;ratioP2
79487;SDS011;68949;53.176;18.088;2023-05-29T00:00:47;5.30;;;1.00;;
79487;SDS011;68949;53.176;18.088;2023-05-29T00:03:25;7.70;;;1.70;;
79487;SDS011;68949;53.176;18.088;2023-05-29T00:05:52;5.60;;;1.20;;
79487;SDS011;68949;53.176;18.088;2023-05-29T00:08:18;5.40;;;1.10;;
79487;SDS011;68949;53.176;18.088;2023-05-29T00:10:45;5.90;;;1.30;;
79487;SDS011;68949;53.176;18.088;2023-05-29T00:13:12;4.70;;;1.10;;
79487;SDS011;68949;53.176;18.088;2023-05-29T00:15:38;4.90;;;1.20;;
79487;SDS011;68949;53.176;18.088;2023-05-29T00:18:05;4.00;;;1.20;;
79487;SDS011;68949;53.176;18.088;2023-05-29T00:20:33;5.10;;;1.30;;
79487;SDS011;68949;53.176;18.088;2023-05-29T00:23:01;5.80;;;1.60;;
79487;SDS011;68949;53.176;18.088;2023-05-29T00:25:28;4.60;;;0.80;;
79487;SDS011;68949;53.176;18.088;2023-05-29T00:27:56;4.70;;;1.00;;
79487;SDS011;68949;53.176;18.088;2023-05-29T00:30:22;6.30;;;1.30;;
79487;SDS011;68949;53.176;18.088;2023-05-29T00:32:50;7.50;;;1.20;;
79487;SDS011;68949;53.176;18.088;2023-05-29T00:35:19;4.20;;;1.00;;
79487;SDS011;68949;53.176;18.088;2023-05-29T00:37:47;4.40;;;1.00;;
79487;SDS011;68949;53.176;18.088;2023-05-29T00:40:13;4.60;;;1.30;;
79487;SDS011;68949;53.176;18.088;2023-05-29T00:42:40;5.80;;;1.50;;
79487;SDS011;68949;53.176;18.088;2023-05-29T00:45:07;7.00;;;1.80;;
79487;SDS011;68949;53.176;18.088;2023-05-29T00:47:34;6.80;;;2.00;;
79487;SDS011;68949;53.176;18.088;2023-05-29T00:50:01;6.80;;;1.70;;
79487;SDS011;68949;53.176;18.088;2023-05-29T00:52:28;5.50;;;0.90;;
79487;SDS011;68949;53.176;18.088;2023-05-29T00:54:56;5.50;;;1.20;;
79487;SDS011;68949;53.176;18.088;2023-05-29T00:57:23;6.10;;;1.40;;
79487;SDS011;68949;53.176;18.088;2023-05-29T00:59:51;3.50;;;0.80;;
79487;SDS011;68949;53.176;18.088;2023-05-29T01:02:19;5.20;;;1.20;;
79487;SDS011;68949;53.176;18.088;2023-05-29T01:04:47;5.00;;;1.00;;
79487;SDS011;68949;53.176;18.088;2023-05-29T01:07:14;6.30;;;1.60;;
79487;SDS011;68949;53.176;18.088;2023-05-29T01:09:41;6.40;;;1.90;;
79487;SDS011;68949;53.176;18.088;2023-05-29T01:18:14;5.40;;;1.30;;
79487;SDS011;68949;53.176;18.088;2023-05-29T01:21:07;6.00;;;1.00;;
79487;SDS011;68949;53.176;18.088;2023-05-29T01:24:14;4.50;;;1.00;;
79487;SDS011;68949;53.176;18.088;2023-05-29T01:27:03;6.70;;;1.80;;
79487;SDS011;68949;53.176;18.088;2023-05-29T01:29:34;6.30;;;1.30;;
79487;SDS011;68949;53.176;18.088;2023-05-29T01:32:03;5.10;;;1.50;;
79487;SDS011;68949;53.176;18.088;2023-05-29T01:34:31;6.30;;;1.60;;
79487;SDS011;68949;53.176;18.088;2023-05-29T01:36:58;6.60;;;2.00;;
79487;SDS011;68949;53.176;18.088;2023-05-29T01:39:26;8.50;;;2.30;;
79487;SDS011;68949;53.176;18.088;2023-05-29T01:41:54;6.80;;;1.70;;
79487;SDS011;68949;53.176;18.088;2023-05-29T01:44:22;4.60;;;1.10;;
79487;SDS011;68949;53.176;18.088;2023-05-29T01:46:50;4.90;;;1.30;;
79487;SDS011;68949;53.176;18.088;2023-05-29T01:49:18;7.70;;;1.50;;
79487;SDS011;68949;53.176;18.088;2023-05-29T01:51:45;7.10;;;2.00;;
79487;SDS011;68949;53.176;18.088;2023-05-29T01:54:12;5.20;;;1.50;;
79487;SDS011;68949;53.176;18.088;2023-05-29T01:56:39;5.30;;;1.90;;
79487;SDS011;68949;53.176;18.088;2023-05-29T01:59:07;6.10;;;1.70;;
79487;SDS011;68949;53.176;18.088;2023-05-29T02:01:34;5.70;;;1.80;;
79487;SDS011;68949;53.176;18.088;2023-05-29T02:04:01;9.70;;;2.10;;
79487;SDS011;68949;53.176;18.088;2023-05-29T02:06:28;6.00;;;1.70;;
79487;SDS011;68949;53.176;18.088;2023-05-29T02:08:55;6.90;;;1.60;;
79487;SDS011;68949;53.176;18.088;2023-05-29T02:11:21;4.90;;;1.40;;
79487;SDS011;68949;53.176;18.088;2023-05-29T02:13:48;4.50;;;1.10;;
79487;SDS011;68949;53.176;18.088;2023-05-29T02:16:15;4.50;;;1.40;;
79487;SDS011;68949;53.176;18.088;2023-05-29T02:18:43;5.60;;;1.50;;
79487;SDS011;68949;53.176;18.088;2023-05-29T02:21:10;4.40;;;1.20;;
79487;SDS011;68949;53.176;18.088;2023-05-29T02:23:38;4.40;;;1.20;;
79487;SDS011;68949;53.176;18.088;2023-05-29T02:26:04;6.00;;;1.70;;
79487;SDS011;68949;53.176;18.088;2023-05-29T02:28:31;4.40;;;1.50;;
79487;SDS011;68949;53.176;18.088;2023-05-29T02:30:59;9.30;;;2.20;;
79487;SDS011;68949;53.176;18.088;2023-05-29T02:33:25;6.00;;;1.60;;
79487;SDS011;68949;53.176;18.088;2023-05-29T02:35:54;5.60;;;1.70;;
79487;SDS011;68949;53.176;18.088;2023-05-29T02:38:21;5.90;;;1.90;;
79487;SDS011;68949;53.176;18.088;2023-05-29T02:40:47;8.00;;;2.10;;
79487;SDS011;68949;53.176;18.088;2023-05-29T02:43:14;8.60;;;2.10;;
79487;SDS011;68949;53.176;18.088;2023-05-29T02:45:41;7.10;;;1.80;;
79487;SDS011;68949;53.176;18.088;2023-05-29T02:48:07;6.20;;;2.00;;
79487;SDS011;68949;53.176;18.088;2023-05-29T02:50:34;5.90;;;1.50;;
79487;SDS011;68949;53.176;18.088;2023-05-29T02:53:01;5.00;;;1.40;;
79487;SDS011;68949;53.176;18.088;2023-05-29T02:55:28;5.90;;;2.00;;
79487;SDS011;68949;53.176;18.088;2023-05-29T02:57:55;6.00;;;1.60;;
79487;SDS011;68949;53.176;18.088;2023-05-29T03:00:22;5.40;;;2.10;;
79487;SDS011;68949;53.176;18.088;2023-05-29T03:02:49;10.60;;;2.30;;
79487;SDS011;68949;53.176;18.088;2023-05-29T03:05:15;10.10;;;2.70;;
79487;SDS011;68949;53.176;18.088;2023-05-29T03:07:43;6.00;;;2.20;;
79487;SDS011;68949;53.176;18.088;2023-05-29T03:10:11;5.60;;;1.60;;
79487;SDS011;68949;53.176;18.088;2023-05-29T03:12:38;5.20;;;1.60;;
79487;SDS011;68949;53.176;18.088;2023-05-29T03:15:06;6.60;;;2.60;;
79487;SDS011;68949;53.176;18.088;2023-05-29T03:17:34;7.70;;;2.20;;
79487;SDS011;68949;53.176;18.088;2023-05-29T03:20:05;6.10;;;2.00;;
79487;SDS011;68949;53.176;18.088;2023-05-29T03:22:34;6.20;;;1.60;;
79487;SDS011;68949;53.176;18.088;2023-05-29T03:25:06;5.00;;;1.80;;
79487;SDS011;68949;53.176;18.088;2023-05-29T03:27:34;8.00;;;2.30;;
79487;SDS011;68949;53.176;18.088;2023-05-29T03:30:07;4.70;;;1.90;;
79487;SDS011;68949;53.176;18.088;2023-05-29T03:32:34;7.40;;;1.90;;
79487;SDS011;68949;53.176;18.088;2023-05-29T03:35:01;5.10;;;1.40;;
79487;SDS011;68949;53.176;18.088;2023-05-29T03:37:30;5.90;;;2.80;;
79487;SDS011;68949;53.176;18.088;2023-05-29T03:39:57;5.70;;;1.80;;
79487;SDS011;68949;53.176;18.088;2023-05-29T03:42:24;8.00;;;2.10;;
79487;SDS011;68949;53.176;18.088;2023-05-29T03:44:51;5.20;;;1.90;;
79487;SDS011;68949;53.176;18.088;2023-05-29T03:47:18;5.10;;;1.70;;
79487;SDS011;68949;53.176;18.088;2023-05-29T03:49:45;6.40;;;2.60;;
79487;SDS011;68949;53.176;18.088;2023-05-29T03:52:12;7.80;;;3.30;;
79487;SDS011;68949;53.176;18.088;2023-05-29T03:54:39;7.90;;;2.40;;
79487;SDS011;68949;53.176;18.088;2023-05-29T03:57:06;5.80;;;1.90;;
79487;SDS011;68949;53.176;18.088;2023-05-29T03:59:33;7.00;;;2.30;;
79487;SDS011;68949;53.176;18.088;2023-05-29T04:02:00;6.40;;;2.80;;
79487;SDS011;68949;53.176;18.088;2023-05-29T04:04:26;6.50;;;2.50;;
79487;SDS011;68949;53.176;18.088;2023-05-29T04:06:54;4.90;;;2.30;;
79487;SDS011;68949;53.176;18.088;2023-05-29T04:09:20;7.90;;;3.20;;
79487;SDS011;68949;53.176;18.088;2023-05-29T04:11:47;6.70;;;2.80;;
79487;SDS011;68949;53.176;18.088;2023-05-29T04:14:14;7.50;;;2.60;;
79487;SDS011;68949;53.176;18.088;2023-05-29T04:16:41;8.30;;;3.80;;
79487;SDS011;68949;53.176;18.088;2023-05-29T04:19:08;6.90;;;3.20;;
79487;SDS011;68949;53.176;18.088;2023-05-29T04:21:34;7.60;;;3.10;;
79487;SDS011;68949;53.176;18.088;2023-05-29T04:24:01;8.00;;;3.40;;
79487;SDS011;68949;53.176;18.088;2023-05-29T04:26:28;8.80;;;3.60;;
79487;SDS011;68949;53.176;18.088;2023-05-29T04:28:55;9.20;;;3.40;;
79487;SDS011;68949;53.176;18.088;2023-05-29T04:31:25;7.80;;;2.80;;
79487;SDS011;68949;53.176;18.088;2023-05-29T04:33:53;8.90;;;3.20;;
79487;SDS011;68949;53.176;18.088;2023-05-29T04:36:24;8.30;;;2.60;;
79487;SDS011;68949;53.176;18.088;2023-05-29T04:39:05;7.50;;;2.80;;
79487;SDS011;68949;53.176;18.088;2023-05-29T04:41:32;7.50;;;3.20;;
79487;SDS011;68949;53.176;18.088;2023-05-29T04:44:00;6.10;;;2.70;;
79487;SDS011;68949;53.176;18.088;2023-05-29T04:46:34;7.70;;;2.80;;
79487;SDS011;68949;53.176;18.088;2023-05-29T04:49:01;7.10;;;2.40;;
79487;SDS011;68949;53.176;18.088;2023-05-29T04:51:29;6.50;;;2.30;;
79487;SDS011;68949;53.176;18.088;2023-05-29T04:53:56;5.40;;;2.10;;
79487;SDS011;68949;53.176;18.088;2023-05-29T04:56:23;6.00;;;1.60;;
79487;SDS011;68949;53.176;18.088;2023-05-29T04:58:50;5.90;;;2.30;;
79487;SDS011;68949;53.176;18.088;2023-05-29T05:01:17;6.90;;;2.40;;
79487;SDS011;68949;53.176;18.088;2023-05-29T05:03:44;6.60;;;2.70;;
79487;SDS011;68949;53.176;18.088;2023-05-29T05:06:13;10.00;;;3.20;;
79487;SDS011;68949;53.176;18.088;2023-05-29T05:08:43;9.30;;;2.60;;
79487;SDS011;68949;53.176;18.088;2023-05-29T05:11:12;6.70;;;1.60;;
79487;SDS011;68949;53.176;18.088;2023-05-29T05:13:40;7.40;;;2.40;;
79487;SDS011;68949;53.176;18.088;2023-05-29T05:16:07;5.00;;;1.60;;
79487;SDS011;68949;53.176;18.088;2023-05-29T05:18:35;8.20;;;2.40;;
79487;SDS011;68949;53.176;18.088;2023-05-29T05:21:04;6.90;;;2.00;;
79487;SDS011;68949;53.176;18.088;2023-05-29T05:23:34;5.50;;;1.80;;
79487;SDS011;68949;53.176;18.088;2023-05-29T05:26:02;9.00;;;3.40;;
79487;SDS011;68949;53.176;18.088;2023-05-29T05:28:29;7.60;;;2.30;;
79487;SDS011;68949;53.176;18.088;2023-05-29T05:30:56;8.00;;;2.50;;
79487;SDS011;68949;53.176;18.088;2023-05-29T05:33:23;6.50;;;2.30;;
79487;SDS011;68949;53.176;18.088;2023-05-29T05:35:50;6.10;;;2.00;;
79487;SDS011;68949;53.176;18.088;2023-05-29T05:38:16;8.60;;;2.20;;
79487;SDS011;68949;53.176;18.088;2023-05-29T05:40:44;7.00;;;2.50;;
79487;SDS011;68949;53.176;18.088;2023-05-29T05:43:21;5.90;;;2.00;;
79487;SDS011;68949;53.176;18.088;2023-05-29T05:46:07;6.90;;;1.80;;
79487;SDS011;68949;53.176;18.088;2023-05-29T05:48:35;6.60;;;1.50;;
79487;SDS011;68949;53.176;18.088;2023-05-29T05:51:02;8.00;;;2.00;;
79487;SDS011;68949;53.176;18.088;2023-05-29T05:53:29;8.80;;;2.20;;
79487;SDS011;68949;53.176;18.088;2023-05-29T05:55:57;6.20;;;1.90;;
79487;SDS011;68949;53.176;18.088;2023-05-29T05:58:25;5.20;;;2.00;;
79487;SDS011;68949;53.176;18.088;2023-05-29T06:00:52;8.50;;;3.00;;
79487;SDS011;68949;53.176;18.088;2023-05-29T06:03:19;5.50;;;1.70;;
79487;SDS011;68949;53.176;18.088;2023-05-29T06:06:05;10.40;;;2.80;;
79487;SDS011;68949;53.176;18.088;2023-05-29T06:08:35;7.50;;;2.20;;
79487;SDS011;68949;53.176;18.088;2023-05-29T06:11:02;3.90;;;1.60;;
79487;SDS011;68949;53.176;18.088;2023-05-29T06:13:29;6.00;;;2.10;;
79487;SDS011;68949;53.176;18.088;2023-05-29T06:16:04;7.00;;;2.70;;
79487;SDS011;68949;53.176;18.088;2023-05-29T06:18:31;6.80;;;2.40;;
79487;SDS011;68949;53.176;18.088;2023-05-29T06:20:58;8.30;;;2.60;;
79487;SDS011;68949;53.176;18.088;2023-05-29T06:23:25;6.00;;;2.00;;
79487;SDS011;68949;53.176;18.088;2023-05-29T06:25:52;6.60;;;1.80;;
79487;SDS011;68949;53.176;18.088;2023-05-29T06:28:20;7.30;;;1.80;;
79487;SDS011;68949;53.176;18.088;2023-05-29T06:30:47;6.70;;;1.90;;
79487;SDS011;68949;53.176;18.088;2023-05-29T06:33:13;8.10;;;2.60;;
79487;SDS011;68949;53.176;18.088;2023-05-29T06:35:41;7.80;;;2.20;;
79487;SDS011;68949;53.176;18.088;2023-05-29T06:38:08;5.50;;;1.80;;
79487;SDS011;68949;53.176;18.088;2023-05-29T06:40:35;5.90;;;1.90;;
79487;SDS011;68949;53.176;18.088;2023-05-29T06:43:01;6.10;;;1.90;;
79487;SDS011;68949;53.176;18.088;2023-05-29T06:45:39;8.50;;;2.50;;
79487;SDS011;68949;53.176;18.088;2023-05-29T06:48:07;6.10;;;1.70;;
79487;SDS011;68949;53.176;18.088;2023-05-29T06:50:34;6.70;;;1.70;;
79487;SDS011;68949;53.176;18.088;2023-05-29T06:53:11;6.40;;;1.90;;
79487;SDS011;68949;53.176;18.088;2023-05-29T06:55:48;5.70;;;2.20;;
79487;SDS011;68949;53.176;18.088;2023-05-29T06:58:15;9.20;;;2.10;;
79487;SDS011;68949;53.176;18.088;2023-05-29T07:00:42;6.40;;;2.50;;
79487;SDS011;68949;53.176;18.088;2023-05-29T07:03:29;6.70;;;2.20;;
79487;SDS011;68949;53.176;18.088;2023-05-29T07:05:56;6.00;;;1.80;;
79487;SDS011;68949;53.176;18.088;2023-05-29T07:08:24;5.70;;;2.70;;
79487;SDS011;68949;53.176;18.088;2023-05-29T07:10:51;5.90;;;1.90;;
79487;SDS011;68949;53.176;18.088;2023-05-29T07:13:19;12.90;;;2.50;;
79487;SDS011;68949;53.176;18.088;2023-05-29T07:15:48;8.20;;;2.40;;
79487;SDS011;68949;53.176;18.088;2023-05-29T07:18:15;10.90;;;2.30;;
79487;SDS011;68949;53.176;18.088;2023-05-29T07:20:42;6.80;;;2.00;;
79487;SDS011;68949;53.176;18.088;2023-05-29T07:23:11;7.50;;;2.00;;
79487;SDS011;68949;53.176;18.088;2023-05-29T07:25:38;7.30;;;2.00;;
79487;SDS011;68949;53.176;18.088;2023-05-29T07:28:04;5.20;;;2.00;;
79487;SDS011;68949;53.176;18.088;2023-05-29T07:30:32;7.90;;;3.00;;
79487;SDS011;68949;53.176;18.088;2023-05-29T07:32:59;6.40;;;1.70;;
79487;SDS011;68949;53.176;18.088;2023-05-29T07:35:26;4.80;;;2.00;;
79487;SDS011;68949;53.176;18.088;2023-05-29T07:37:53;8.10;;;2.40;;
79487;SDS011;68949;53.176;18.088;2023-05-29T07:40:22;6.10;;;2.10;;
79487;SDS011;68949;53.176;18.088;2023-05-29T07:43:01;6.20;;;2.40;;
79487;SDS011;68949;53.176;18.088;2023-05-29T07:45:38;15.40;;;3.50;;
79487;SDS011;68949;53.176;18.088;2023-05-29T07:48:04;8.80;;;3.10;;
79487;SDS011;68949;53.176;18.088;2023-05-29T07:50:32;7.70;;;2.10;;
79487;SDS011;68949;53.176;18.088;2023-05-29T07:52:59;7.80;;;2.50;;
79487;SDS011;68949;53.176;18.088;2023-05-29T07:55:27;6.60;;;2.10;;
79487;SDS011;68949;53.176;18.088;2023-05-29T07:57:54;6.40;;;2.80;;
79487;SDS011;68949;53.176;18.088;2023-05-29T08:00:20;5.10;;;2.00;;
79487;SDS011;68949;53.176;18.088;2023-05-29T08:02:48;6.90;;;1.90;;
79487;SDS011;68949;53.176;18.088;2023-05-29T08:05:36;7.20;;;2.10;;
79487;SDS011;68949;53.176;18.088;2023-05-29T08:08:07;7.30;;;1.50;;
79487;SDS011;68949;53.176;18.088;2023-05-29T08:10:35;7.70;;;2.20;;
79487;SDS011;68949;53.176;18.088;2023-05-29T08:13:02;5.00;;;1.30;;
79487;SDS011;68949;53.176;18.088;2023-05-29T08:15:30;5.00;;;1.70;;
79487;SDS011;68949;53.176;18.088;2023-05-29T08:17:58;4.90;;;1.50;;
79487;SDS011;68949;53.176;18.088;2023-05-29T08:20:24;6.50;;;2.20;;
79487;SDS011;68949;53.176;18.088;2023-05-29T08:22:51;5.00;;;1.60;;
79487;SDS011;68949;53.176;18.088;2023-05-29T08:25:18;6.80;;;2.10;;
79487;SDS011;68949;53.176;18.088;2023-05-29T08:27:47;5.60;;;1.80;;
79487;SDS011;68949;53.176;18.088;2023-05-29T08:30:14;4.20;;;1.30;;
79487;SDS011;68949;53.176;18.088;2023-05-29T08:32:40;4.60;;;1.70;;
79487;SDS011;68949;53.176;18.088;2023-05-29T08:35:07;6.60;;;1.80;;
79487;SDS011;68949;53.176;18.088;2023-05-29T08:37:34;4.60;;;1.50;;
79487;SDS011;68949;53.176;18.088;2023-05-29T08:40:02;7.20;;;2.20;;
79487;SDS011;68949;53.176;18.088;2023-05-29T08:42:36;4.50;;;1.30;;
79487;SDS011;68949;53.176;18.088;2023-05-29T08:45:13;5.20;;;1.50;;
79487;SDS011;68949;53.176;18.088;2023-05-29T08:47:41;4.10;;;1.20;;
79487;SDS011;68949;53.176;18.088;2023-05-29T08:50:11;4.00;;;1.30;;
79487;SDS011;68949;53.176;18.088;2023-05-29T08:52:41;5.60;;;1.80;;
79487;SDS011;68949;53.176;18.088;2023-05-29T08:55:08;7.10;;;1.70;;
79487;SDS011;68949;53.176;18.088;2023-05-29T08:57:36;6.80;;;2.00;;
79487;SDS011;68949;53.176;18.088;2023-05-29T09:00:06;4.60;;;1.70;;
79487;SDS011;68949;53.176;18.088;2023-05-29T09:02:40;4.50;;;1.50;;
79487;SDS011;68949;53.176;18.088;2023-05-29T09:05:07;4.80;;;1.10;;
79487;SDS011;68949;53.176;18.088;2023-05-29T09:07:36;5.90;;;1.90;;
79487;SDS011;68949;53.176;18.088;2023-05-29T09:10:08;4.00;;;1.40;;
79487;SDS011;68949;53.176;18.088;2023-05-29T09:12:36;5.30;;;1.40;;
79487;SDS011;68949;53.176;18.088;2023-05-29T09:15:22;4.20;;;1.40;;
79487;SDS011;68949;53.176;18.088;2023-05-29T09:17:54;5.10;;;1.70;;
79487;SDS011;68949;53.176;18.088;2023-05-29T09:20:24;5.60;;;1.40;;
79487;SDS011;68949;53.176;18.088;2023-05-29T09:22:57;4.50;;;1.30;;
79487;SDS011;68949;53.176;18.088;2023-05-29T09:25:28;7.00;;;1.70;;
79487;SDS011;68949;53.176;18.088;2023-05-29T09:28:03;3.70;;;1.10;;
79487;SDS011;68949;53.176;18.088;2023-05-29T09:33:08;5.40;;;1.80;;
79487;SDS011;68949;53.176;18.088;2023-05-29T09:35:43;5.30;;;1.70;;
79487;SDS011;68949;53.176;18.088;2023-05-29T09:38:16;4.90;;;1.40;;
79487;SDS011;68949;53.176;18.088;2023-05-29T09:40:45;7.40;;;1.40;;
79487;SDS011;68949;53.176;18.088;2023-05-29T09:45:44;6.40;;;1.60;;
79487;SDS011;68949;53.176;18.088;2023-05-29T09:48:22;7.00;;;2.10;;
79487;SDS011;68949;53.176;18.088;2023-05-29T09:50:50;5.30;;;2.10;;
79487;SDS011;68949;53.176;18.088;2023-05-29T09:53:17;7.20;;;1.90;;
79487;SDS011;68949;53.176;18.088;2023-05-29T09:55:55;4.60;;;1.70;;
79487;SDS011;68949;53.176;18.088;2023-05-29T09:58:23;6.40;;;1.90;;
79487;SDS011;68949;53.176;18.088;2023-05-29T10:00:51;5.30;;;1.60;;
79487;SDS011;68949;53.176;18.088;2023-05-29T10:03:19;6.20;;;1.40;;
79487;SDS011;68949;53.176;18.088;2023-05-29T10:05:52;7.70;;;1.70;;
79487;SDS011;68949;53.176;18.088;2023-05-29T10:08:23;6.10;;;1.50;;
79487;SDS011;68949;53.176;18.088;2023-05-29T10:11:01;7.10;;;1.40;;
79487;SDS011;68949;53.176;18.088;2023-05-29T10:13:36;3.70;;;1.00;;
79487;SDS011;68949;53.176;18.088;2023-05-29T10:16:08;5.40;;;1.80;;
79487;SDS011;68949;53.176;18.088;2023-05-29T10:18:43;4.00;;;1.40;;
79487;SDS011;68949;53.176;18.088;2023-05-29T10:21:13;6.70;;;2.00;;
79487;SDS011;68949;53.176;18.088;2023-05-29T10:23:45;3.70;;;1.30;;
79487;SDS011;68949;53.176;18.088;2023-05-29T10:26:27;4.30;;;1.20;;
79487;SDS011;68949;53.176;18.088;2023-05-29T10:29:31;5.10;;;1.30;;
79487;SDS011;68949;53.176;18.088;2023-05-29T10:32:27;6.70;;;1.50;;
79487;SDS011;68949;53.176;18.088;2023-05-29T10:38:12;4.90;;;1.00;;
79487;SDS011;68949;53.176;18.088;2023-05-29T10:40:43;4.90;;;1.50;;
79487;SDS011;68949;53.176;18.088;2023-05-29T10:43:32;4.90;;;1.20;;
79487;SDS011;68949;53.176;18.088;2023-05-29T10:46:01;3.90;;;1.00;;
79487;SDS011;68949;53.176;18.088;2023-05-29T10:48:41;4.70;;;1.30;;
79487;SDS011;68949;53.176;18.088;2023-05-29T10:51:27;5.10;;;1.30;;
79487;SDS011;68949;53.176;18.088;2023-05-29T10:53:55;6.40;;;1.30;;
79487;SDS011;68949;53.176;18.088;2023-05-29T10:56:23;5.40;;;1.40;;
79487;SDS011;68949;53.176;18.088;2023-05-29T10:58:57;6.80;;;1.90;;
79487;SDS011;68949;53.176;18.088;2023-05-29T11:01:28;5.80;;;1.50;;
79487;SDS011;68949;53.176;18.088;2023-05-29T11:06:44;3.50;;;1.20;;
79487;SDS011;68949;53.176;18.088;2023-05-29T11:12:36;3.60;;;1.40;;
79487;SDS011;68949;53.176;18.088;2023-05-29T11:15:23;3.60;;;0.90;;
79487;SDS011;68949;53.176;18.088;2023-05-29T11:17:51;4.60;;;1.30;;
79487;SDS011;68949;53.176;18.088;2023-05-29T11:20:36;3.80;;;0.90;;
79487;SDS011;68949;53.176;18.088;2023-05-29T11:23:15;4.30;;;1.40;;
79487;SDS011;68949;53.176;18.088;2023-05-29T11:25:45;4.70;;;1.20;;
79487;SDS011;68949;53.176;18.088;2023-05-29T11:28:13;5.20;;;1.50;;
79487;SDS011;68949;53.176;18.088;2023-05-29T11:30:42;4.90;;;1.10;;
79487;SDS011;68949;53.176;18.088;2023-05-29T11:33:19;4.10;;;1.00;;
79487;SDS011;68949;53.176;18.088;2023-05-29T11:35:59;5.70;;;1.50;;
79487;SDS011;68949;53.176;18.088;2023-05-29T11:38:28;4.50;;;1.20;;
79487;SDS011;68949;53.176;18.088;2023-05-29T11:40:56;4.60;;;1.30;;
79487;SDS011;68949;53.176;18.088;2023-05-29T11:43:24;3.60;;;1.00;;
79487;SDS011;68949;53.176;18.088;2023-05-29T11:45:52;5.10;;;1.20;;
79487;SDS011;68949;53.176;18.088;2023-05-29T11:48:19;4.40;;;1.10;;
79487;SDS011;68949;53.176;18.088;2023-05-29T11:50:46;3.40;;;1.00;;
79487;SDS011;68949;53.176;18.088;2023-05-29T11:53:13;4.90;;;1.10;;
79487;SDS011;68949;53.176;18.088;2023-05-29T11:55:41;5.80;;;1.40;;
79487;SDS011;68949;53.176;18.088;2023-05-29T11:58:07;5.70;;;1.80;;
79487;SDS011;68949;53.176;18.088;2023-05-29T12:00:37;3.90;;;1.40;;
79487;SDS011;68949;53.176;18.088;2023-05-29T12:03:06;3.90;;;1.60;;
79487;SDS011;68949;53.176;18.088;2023-05-29T12:05:49;3.30;;;0.90;;
79487;SDS011;68949;53.176;18.088;2023-05-29T12:08:24;5.00;;;1.40;;
79487;SDS011;68949;53.176;18.088;2023-05-29T12:10:52;4.20;;;1.00;;
79487;SDS011;68949;53.176;18.088;2023-05-29T12:13:20;4.90;;;1.40;;
79487;SDS011;68949;53.176;18.088;2023-05-29T12:15:49;5.80;;;1.50;;
79487;SDS011;68949;53.176;18.088;2023-05-29T12:18:20;4.30;;;1.30;;
79487;SDS011;68949;53.176;18.088;2023-05-29T12:20:47;3.40;;;1.00;;
79487;SDS011;68949;53.176;18.088;2023-05-29T12:23:13;5.30;;;1.00;;
79487;SDS011;68949;53.176;18.088;2023-05-29T12:25:40;5.10;;;1.50;;
79487;SDS011;68949;53.176;18.088;2023-05-29T12:28:16;4.90;;;1.30;;
79487;SDS011;68949;53.176;18.088;2023-05-29T12:30:44;5.40;;;1.30;;
79487;SDS011;68949;53.176;18.088;2023-05-29T12:33:32;4.30;;;1.00;;
79487;SDS011;68949;53.176;18.088;2023-05-29T12:36:06;3.20;;;1.10;;
79487;SDS011;68949;53.176;18.088;2023-05-29T12:38:49;3.80;;;1.00;;
79487;SDS011;68949;53.176;18.088;2023-05-29T12:41:32;3.00;;;1.00;;
79487;SDS011;68949;53.176;18.088;2023-05-29T12:44:03;4.70;;;1.20;;
79487;SDS011;68949;53.176;18.088;2023-05-29T12:46:43;4.30;;;1.10;;
79487;SDS011;68949;53.176;18.088;2023-05-29T12:49:17;4.80;;;1.40;;
79487;SDS011;68949;53.176;18.088;2023-05-29T12:51:47;4.30;;;1.30;;
79487;SDS011;68949;53.176;18.088;2023-05-29T12:54:15;5.40;;;1.10;;
79487;SDS011;68949;53.176;18.088;2023-05-29T12:56:43;3.80;;;1.20;;
79487;SDS011;68949;53.176;18.088;2023-05-29T12:59:12;6.70;;;1.50;;
79487;SDS011;68949;53.176;18.088;2023-05-29T13:01:39;3.40;;;0.80;;
79487;SDS011;68949;53.176;18.088;2023-05-29T13:04:07;3.90;;;1.20;;
79487;SDS011;68949;53.176;18.088;2023-05-29T13:06:34;4.40;;;1.50;;
79487;SDS011;68949;53.176;18.088;2023-05-29T13:09:04;4.50;;;1.30;;
79487;SDS011;68949;53.176;18.088;2023-05-29T13:11:33;4.00;;;1.20;;
79487;SDS011;68949;53.176;18.088;2023-05-29T13:13:59;5.40;;;1.50;;
79487;SDS011;68949;53.176;18.088;2023-05-29T13:16:26;3.70;;;1.10;;
79487;SDS011;68949;53.176;18.088;2023-05-29T13:18:53;6.70;;;1.50;;
79487;SDS011;68949;53.176;18.088;2023-05-29T13:21:21;5.00;;;1.20;;
79487;SDS011;68949;53.176;18.088;2023-05-29T13:23:47;3.00;;;0.90;;
79487;SDS011;68949;53.176;18.088;2023-05-29T13:26:14;4.50;;;1.30;;
79487;SDS011;68949;53.176;18.088;2023-05-29T13:28:41;4.00;;;1.10;;
79487;SDS011;68949;53.176;18.088;2023-05-29T13:31:08;4.80;;;1.20;;
79487;SDS011;68949;53.176;18.088;2023-05-29T13:33:34;4.50;;;0.80;;
79487;SDS011;68949;53.176;18.088;2023-05-29T13:36:01;5.00;;;1.30;;
79487;SDS011;68949;53.176;18.088;2023-05-29T13:38:28;5.40;;;1.70;;
79487;SDS011;68949;53.176;18.088;2023-05-29T13:40:55;6.80;;;1.40;;
79487;SDS011;68949;53.176;18.088;2023-05-29T13:43:21;3.60;;;1.00;;
79487;SDS011;68949;53.176;18.088;2023-05-29T13:45:48;6.60;;;1.10;;
79487;SDS011;68949;53.176;18.088;2023-05-29T13:48:15;4.40;;;1.10;;
79487;SDS011;68949;53.176;18.088;2023-05-29T13:50:42;4.20;;;0.90;;
79487;SDS011;68949;53.176;18.088;2023-05-29T13:53:08;4.80;;;1.10;;
79487;SDS011;68949;53.176;18.088;2023-05-29T13:55:35;3.40;;;0.80;;
79487;SDS011;68949;53.176;18.088;2023-05-29T13:58:02;3.90;;;1.10;;
79487;SDS011;68949;53.176;18.088;2023-05-29T14:00:29;3.90;;;1.10;;
79487;SDS011;68949;53.176;18.088;2023-05-29T14:02:55;6.00;;;1.20;;
79487;SDS011;68949;53.176;18.088;2023-05-29T14:05:22;4.80;;;1.30;;
79487;SDS011;68949;53.176;18.088;2023-05-29T14:07:51;4.60;;;1.40;;
79487;SDS011;68949;53.176;18.088;2023-05-29T14:10:17;4.80;;;1.20;;
79487;SDS011;68949;53.176;18.088;2023-05-29T14:12:44;4.60;;;1.00;;
79487;SDS011;68949;53.176;18.088;2023-05-29T14:15:11;4.20;;;0.80;;
79487;SDS011;68949;53.176;18.088;2023-05-29T14:17:38;5.50;;;0.90;;
79487;SDS011;68949;53.176;18.088;2023-05-29T14:20:06;7.40;;;1.60;;
79487;SDS011;68949;53.176;18.088;2023-05-29T14:22:34;5.40;;;1.30;;
79487;SDS011;68949;53.176;18.088;2023-05-29T14:25:03;4.70;;;1.10;;
79487;SDS011;68949;53.176;18.088;2023-05-29T14:27:32;4.90;;;1.10;;
79487;SDS011;68949;53.176;18.088;2023-05-29T14:29:59;4.80;;;1.20;;
79487;SDS011;68949;53.176;18.088;2023-05-29T14:32:29;3.80;;;0.90;;
79487;SDS011;68949;53.176;18.088;2023-05-29T14:34:56;4.40;;;0.90;;
79487;SDS011;68949;53.176;18.088;2023-05-29T14:37:24;4.00;;;1.00;;
79487;SDS011;68949;53.176;18.088;2023-05-29T14:39:51;4.50;;;1.20;;
79487;SDS011;68949;53.176;18.088;2023-05-29T14:42:18;4.50;;;1.20;;
79487;SDS011;68949;53.176;18.088;2023-05-29T14:44:45;7.10;;;1.50;;
79487;SDS011;68949;53.176;18.088;2023-05-29T14:47:11;4.70;;;1.30;;
79487;SDS011;68949;53.176;18.088;2023-05-29T14:49:39;5.50;;;0.70;;
79487;SDS011;68949;53.176;18.088;2023-05-29T14:52:06;5.60;;;1.40;;
79487;SDS011;68949;53.176;18.088;2023-05-29T14:54:33;4.50;;;1.00;;
79487;SDS011;68949;53.176;18.088;2023-05-29T14:57:00;3.50;;;1.20;;
79487;SDS011;68949;53.176;18.088;2023-05-29T14:59:27;4.50;;;1.20;;
79487;SDS011;68949;53.176;18.088;2023-05-29T15:01:54;4.20;;;1.10;;
79487;SDS011;68949;53.176;18.088;2023-05-29T15:04:23;4.70;;;1.10;;
79487;SDS011;68949;53.176;18.088;2023-05-29T15:06:49;5.20;;;1.10;;